createdAt,value
2019-01-23T00:21:09.022Z,-6.60
2019-01-23T00:24:09.421Z,-6.60
2019-01-23T00:27:09.830Z,-6.60
2019-01-23T00:30:10.309Z,-6.70
2019-01-23T00:33:10.709Z,-6.90
2019-01-23T00:36:11.184Z,-7.00
2019-01-23T00:39:11.513Z,-7.00
2019-01-23T00:42:11.887Z,-6.80
2019-01-23T00:45:12.763Z,-6.80
2019-01-23T00:48:13.324Z,-6.80
2019-01-23T00:51:13.690Z,-6.80
2019-01-23T00:54:14.692Z,-6.90
2019-01-23T00:57:15.028Z,-6.90
2019-01-23T01:00:15.404Z,-7.00
2019-01-23T01:03:16.140Z,-7.00
2019-01-23T01:06:16.838Z,-7.00
2019-01-23T01:09:17.720Z,-7.00
2019-01-23T01:12:06.308Z,-7.00
2019-01-23T01:15:14.560Z,-7.00
2019-01-23T01:18:15.559Z,-7.00
2019-01-23T01:21:16.752Z,-7.00
2019-01-23T01:24:17.177Z,-7.00
2019-01-23T01:27:17.810Z,-7.10
2019-01-23T01:30:18.228Z,-7.20
2019-01-23T01:33:18.913Z,-7.20
2019-01-23T01:36:19.387Z,-7.20
2019-01-23T01:39:19.635Z,-7.20
2019-01-23T01:42:20.082Z,-7.30
2019-01-23T01:45:20.901Z,-7.20
2019-01-23T01:48:09.524Z,-7.20
2019-01-23T01:51:10.442Z,-7.20
2019-01-23T01:54:11.192Z,-7.20
2019-01-23T01:57:11.786Z,-7.10
2019-01-23T02:00:12.084Z,-7.20
2019-01-23T02:03:15.436Z,-7.20
2019-01-23T02:06:15.162Z,-7.30
2019-01-23T02:09:15.719Z,-7.20
2019-01-23T02:12:16.253Z,-7.30
2019-01-23T02:15:16.741Z,-7.30
2019-01-23T02:18:17.485Z,-7.30
2019-01-23T02:21:18.165Z,-7.30
2019-01-23T02:24:18.583Z,-7.30
2019-01-23T02:27:19.527Z,-7.30
2019-01-23T02:30:19.947Z,-7.30
2019-01-23T02:33:20.270Z,-7.40
2019-01-23T02:36:21.140Z,-7.40
2019-01-23T02:39:21.846Z,-7.40
2019-01-23T02:42:22.316Z,-7.50
2019-01-23T02:45:23.487Z,-7.50
2019-01-23T02:48:24.510Z,-7.50
2019-01-23T02:51:24.873Z,-7.50
2019-01-23T02:54:25.408Z,-7.50
2019-01-23T02:57:25.825Z,-7.50
2019-01-23T03:00:26.409Z,-7.50
2019-01-23T03:03:27.141Z,-7.50
2019-01-23T03:06:28.262Z,-7.60
2019-01-23T03:12:30.831Z,-7.50
2019-01-23T03:15:38.686Z,-7.50
2019-01-23T03:18:39.113Z,-7.60
2019-01-23T03:21:39.756Z,-7.60
2019-01-23T03:24:40.196Z,-7.60
2019-01-23T03:27:40.975Z,-7.60
2019-01-23T03:30:42.257Z,-7.70
2019-01-23T03:33:42.616Z,-7.80
2019-01-23T03:36:42.896Z,-7.80
2019-01-23T03:39:43.435Z,-7.70
2019-01-23T03:42:44.059Z,-7.60
2019-01-23T03:45:44.450Z,-7.60
2019-01-23T03:48:45.144Z,-7.70
2019-01-23T03:51:45.749Z,-7.70
2019-01-23T03:54:46.410Z,-7.70
2019-01-23T03:57:47.180Z,-7.70
2019-01-23T04:00:51.134Z,-7.80
2019-01-23T04:03:51.741Z,-7.90
2019-01-23T04:06:52.346Z,-8.00
2019-01-23T04:09:52.976Z,-8.00
2019-01-23T04:12:53.700Z,-7.90
2019-01-23T04:15:54.262Z,-7.80
2019-01-23T04:18:54.738Z,-7.80
2019-01-23T04:21:55.474Z,-7.90
2019-01-23T04:24:56.147Z,-7.80
2019-01-23T04:27:57.006Z,-7.80
2019-01-23T04:30:57.248Z,-7.80
2019-01-23T04:33:57.637Z,-7.70
2019-01-23T04:36:58.185Z,-7.70
2019-01-23T04:39:58.689Z,-7.70
2019-01-23T04:42:59.449Z,-7.80
2019-01-23T04:46:00.201Z,-7.80
2019-01-23T04:49:00.903Z,-7.80
2019-01-23T04:52:03.109Z,-7.80
2019-01-23T04:55:04.186Z,-7.80
2019-01-23T04:58:04.796Z,-7.80
2019-01-23T05:01:05.132Z,-7.90
2019-01-23T05:04:05.476Z,-8.00
2019-01-23T05:07:05.819Z,-7.80
2019-01-23T05:10:06.783Z,-7.90
2019-01-23T05:13:07.582Z,-7.90
2019-01-23T05:16:08.066Z,-7.90
2019-01-23T05:19:08.560Z,-7.90
2019-01-23T05:22:08.803Z,-7.80
2019-01-23T05:25:09.420Z,-7.80
2019-01-23T05:28:10.344Z,-7.70
2019-01-23T05:31:11.409Z,-7.80
2019-01-23T05:34:12.184Z,-7.90
2019-01-23T05:37:13.000Z,-7.90
2019-01-23T05:40:13.414Z,-7.90
2019-01-23T05:43:14.068Z,-7.90
2019-01-23T05:46:14.872Z,-7.80
2019-01-23T05:49:15.235Z,-7.80
2019-01-23T05:52:15.709Z,-7.90
2019-01-23T05:55:16.039Z,-7.90
2019-01-23T05:58:16.710Z,-8.00
2019-01-23T06:01:17.416Z,-8.00
2019-01-23T06:04:18.388Z,-8.00
2019-01-23T06:07:18.782Z,-8.00
2019-01-23T06:10:19.359Z,-7.90
2019-01-23T06:13:19.987Z,-7.90
2019-01-23T06:16:20.774Z,-7.90
2019-01-23T06:19:21.477Z,-7.80
2019-01-23T06:22:22.157Z,-7.80
2019-01-23T06:25:22.607Z,-7.80
2019-01-23T06:28:23.103Z,-7.90
2019-01-23T06:31:23.421Z,-7.90
2019-01-23T06:34:24.396Z,-7.80
2019-01-23T06:37:25.106Z,-7.90
2019-01-23T06:40:25.404Z,-7.90
2019-01-23T06:43:26.045Z,-7.90
2019-01-23T06:46:26.323Z,-7.90
2019-01-23T06:49:26.660Z,-7.90
2019-01-23T06:52:27.073Z,-7.90
2019-01-23T06:55:27.781Z,-7.90
2019-01-23T06:58:28.241Z,-7.90
2019-01-23T07:01:28.523Z,-7.90
2019-01-23T07:04:28.801Z,-7.90
2019-01-23T07:07:29.120Z,-7.80
2019-01-23T07:10:29.881Z,-7.90
2019-01-23T07:13:30.249Z,-7.90
2019-01-23T07:16:31.404Z,-7.90
2019-01-23T07:19:32.157Z,-7.90
2019-01-23T07:22:32.953Z,-7.90
2019-01-23T07:25:33.797Z,-7.90
2019-01-23T07:28:34.497Z,-7.80
2019-01-23T07:31:35.720Z,-7.80
2019-01-23T07:34:36.777Z,-7.80
2019-01-23T07:37:37.179Z,-7.70
2019-01-23T07:40:38.024Z,-7.80
2019-01-23T07:43:38.592Z,-7.80
2019-01-23T07:46:38.906Z,-7.50
2019-01-23T07:49:39.243Z,-6.80
2019-01-23T07:52:39.594Z,-6.30
2019-01-23T07:55:40.909Z,-5.70
2019-01-23T07:58:41.731Z,-5.20
2019-01-23T08:01:42.474Z,-4.70
2019-01-23T08:04:43.660Z,-4.60
2019-01-23T08:07:44.322Z,-4.20
2019-01-23T08:10:44.857Z,-3.90
2019-01-23T08:13:45.212Z,-3.40
2019-01-23T08:16:46.441Z,-3.00
2019-01-23T08:19:47.232Z,-2.60
2019-01-23T08:22:47.766Z,-2.50
2019-01-23T08:25:48.177Z,-2.30
2019-01-23T08:28:49.083Z,-2.10
2019-01-23T08:31:49.586Z,-1.60
2019-01-23T08:34:50.289Z,-1.40
2019-01-23T08:37:51.452Z,-1.10
2019-01-23T08:40:52.353Z,-0.10
2019-01-23T08:43:53.140Z,0.30
2019-01-23T08:46:53.592Z,0.80
2019-01-23T08:49:54.165Z,1.50
2019-01-23T08:52:54.504Z,1.10
2019-01-23T08:55:54.946Z,1.40
2019-01-23T08:58:55.302Z,1.80
2019-01-23T09:01:55.998Z,2.10
2019-01-23T09:04:56.340Z,2.10
2019-01-23T09:07:56.745Z,2.50
2019-01-23T09:10:57.074Z,2.30
2019-01-23T09:13:57.812Z,2.60
2019-01-23T09:16:46.487Z,2.80
2019-01-23T09:19:54.417Z,2.50
2019-01-23T09:22:54.750Z,2.30
2019-01-23T09:25:55.362Z,2.50
2019-01-23T09:28:55.862Z,2.80
2019-01-23T09:31:56.577Z,3.60
2019-01-23T09:34:56.893Z,3.20
2019-01-23T09:37:57.734Z,4.20
2019-01-23T09:40:58.454Z,3.90
2019-01-23T09:43:59.037Z,3.90
2019-01-23T09:46:59.577Z,4.10
2019-01-23T09:50:00.279Z,4.40
2019-01-23T09:53:01.365Z,4.80
2019-01-23T09:55:49.912Z,5.30
2019-01-23T10:02:17.069Z,4.40
2019-01-23T10:05:17.878Z,3.90
2019-01-23T10:08:18.367Z,3.80
2019-01-23T10:11:19.617Z,3.80
2019-01-23T10:14:19.925Z,3.70
2019-01-23T10:17:20.427Z,4.90
2019-01-23T10:20:20.775Z,4.60
2019-01-23T10:23:21.105Z,5.00
2019-01-23T10:26:21.908Z,5.10
2019-01-23T10:29:22.485Z,5.80
2019-01-23T10:32:22.794Z,5.70
2019-01-23T10:35:23.277Z,4.60
2019-01-23T10:38:24.400Z,5.70
2019-01-23T10:41:24.994Z,4.90
2019-01-23T10:44:25.527Z,5.30
2019-01-23T10:47:26.169Z,4.80
2019-01-23T10:50:26.542Z,5.20
2019-01-23T10:53:27.302Z,6.30
2019-01-23T10:56:28.429Z,7.80
2019-01-23T10:59:29.647Z,9.10
2019-01-23T11:02:30.343Z,8.70
2019-01-23T11:05:31.376Z,6.80
2019-01-23T11:08:31.846Z,6.40
2019-01-23T11:11:32.178Z,6.50
2019-01-23T11:14:32.533Z,5.60
2019-01-23T11:17:35.114Z,4.70
2019-01-23T11:20:35.649Z,5.00
2019-01-23T11:23:36.854Z,6.30
2019-01-23T11:26:37.446Z,7.00
2019-01-23T11:29:37.768Z,6.30
2019-01-23T11:32:38.173Z,5.60
2019-01-23T11:35:38.685Z,5.60
2019-01-23T11:38:39.727Z,6.00
2019-01-23T11:41:40.065Z,5.90
2019-01-23T11:44:40.420Z,4.80
2019-01-23T11:47:41.132Z,4.50
2019-01-23T11:50:41.569Z,4.70
2019-01-23T11:53:42.024Z,4.60
2019-01-23T11:56:42.504Z,4.20
2019-01-23T11:59:43.261Z,4.10
2019-01-23T12:02:44.043Z,4.70
2019-01-23T12:05:44.716Z,4.80
2019-01-23T12:08:45.833Z,4.60
2019-01-23T12:11:47.096Z,5.00
2019-01-23T12:14:48.177Z,4.70
2019-01-23T12:17:48.954Z,5.30
2019-01-23T12:20:50.068Z,5.00
2019-01-23T12:23:50.813Z,4.80
2019-01-23T12:26:51.430Z,5.00
2019-01-23T12:29:51.930Z,4.80
2019-01-23T12:32:52.629Z,5.00
2019-01-23T12:35:52.995Z,5.20
2019-01-23T12:38:54.246Z,5.70
2019-01-23T12:41:55.016Z,5.40
2019-01-23T12:44:55.325Z,5.20
2019-01-23T12:47:56.395Z,5.20
2019-01-23T12:50:56.874Z,4.50
2019-01-23T12:53:57.523Z,4.80
2019-01-23T12:56:57.919Z,4.30
2019-01-23T13:00:05.142Z,5.10
2019-01-23T13:03:01.658Z,5.40
2019-01-23T13:06:02.165Z,5.50
2019-01-23T13:09:02.723Z,6.00
2019-01-23T13:12:03.408Z,6.10
2019-01-23T13:15:04.191Z,6.30
2019-01-23T13:18:04.866Z,6.60
2019-01-23T13:21:05.608Z,6.70
2019-01-23T13:24:06.062Z,6.70
2019-01-23T13:27:06.909Z,7.70
2019-01-23T13:30:07.263Z,7.60
2019-01-23T13:33:07.517Z,7.20
2019-01-23T13:36:08.498Z,7.00
2019-01-23T13:39:09.155Z,6.70
2019-01-23T13:42:10.573Z,6.30
2019-01-23T13:45:11.264Z,6.70
2019-01-23T13:48:11.917Z,6.50
2019-01-23T13:51:12.868Z,6.00
2019-01-23T13:54:13.266Z,6.00
2019-01-23T13:57:13.592Z,5.40
2019-01-23T14:00:14.024Z,6.00
2019-01-23T14:03:14.395Z,6.40
2019-01-23T14:06:15.047Z,5.30
2019-01-23T14:09:15.654Z,4.80
2019-01-23T14:12:16.120Z,4.70
2019-01-23T14:15:17.296Z,4.40
2019-01-23T14:18:18.558Z,4.20
2019-01-23T14:21:19.313Z,4.40
2019-01-23T14:24:20.536Z,4.00
2019-01-23T14:27:21.253Z,4.00
2019-01-23T14:30:21.904Z,3.70
2019-01-23T14:33:22.599Z,3.70
2019-01-23T14:36:23.893Z,3.30
2019-01-23T14:39:25.130Z,2.70
2019-01-23T14:42:25.481Z,3.00
2019-01-23T14:45:25.937Z,2.30
2019-01-23T14:48:34.100Z,2.20
2019-01-23T14:51:42.074Z,1.90
2019-01-23T14:54:42.945Z,2.00
2019-01-23T14:57:43.579Z,2.20
2019-01-23T15:00:44.178Z,2.00
2019-01-23T15:03:45.222Z,2.00
2019-01-23T15:06:45.593Z,1.80
2019-01-23T15:09:46.079Z,1.80
2019-01-23T15:12:46.756Z,1.60
2019-01-23T15:15:47.770Z,1.60
2019-01-23T15:18:48.156Z,1.60
2019-01-23T15:21:48.724Z,1.70
2019-01-23T15:24:49.107Z,1.60
2019-01-23T15:27:49.728Z,1.20
2019-01-23T15:30:51.015Z,1.30
2019-01-23T15:33:51.439Z,1.50
2019-01-23T15:36:52.262Z,1.50
2019-01-23T15:39:52.819Z,1.40
2019-01-23T15:42:53.223Z,1.50
2019-01-23T15:45:53.888Z,1.40
2019-01-23T15:48:55.095Z,1.10
2019-01-23T15:51:55.393Z,1.00
2019-01-23T15:54:55.799Z,1.20
2019-01-23T15:57:56.218Z,1.20
2019-01-23T16:00:56.836Z,1.10
2019-01-23T16:03:58.095Z,0.90
2019-01-23T16:06:59.210Z,1.10
2019-01-23T16:10:00.409Z,1.00
2019-01-23T16:13:00.779Z,1.00
2019-01-23T16:16:01.505Z,1.00
2019-01-23T16:19:01.911Z,1.00
2019-01-23T16:22:02.776Z,0.70
2019-01-23T16:25:03.236Z,0.60
2019-01-23T16:28:03.686Z,0.50
2019-01-23T16:31:05.414Z,0.60
2019-01-23T16:34:06.680Z,0.30
2019-01-23T16:37:07.696Z,0.70
2019-01-23T16:40:07.979Z,0.80
2019-01-23T16:43:08.486Z,0.70
2019-01-23T16:46:09.281Z,0.70
2019-01-23T16:49:09.662Z,0.70
2019-01-23T16:52:10.875Z,0.40
2019-01-23T16:55:11.311Z,0.40
2019-01-23T16:58:12.625Z,0.60
2019-01-23T17:01:13.035Z,0.60
2019-01-23T17:04:13.637Z,0.50
2019-01-23T17:07:13.987Z,0.40
2019-01-23T17:10:14.493Z,0.40
2019-01-23T17:13:15.454Z,0.60
2019-01-23T17:16:15.836Z,0.00
2019-01-23T17:19:16.318Z,-0.30
2019-01-23T17:22:17.167Z,-0.30
2019-01-23T17:25:17.481Z,-0.20
2019-01-23T17:28:18.745Z,-0.30
2019-01-23T17:31:19.364Z,-0.30
2019-01-23T17:34:19.971Z,0.00
2019-01-23T17:37:20.608Z,-0.10
2019-01-23T17:40:21.021Z,0.00
2019-01-23T17:43:22.001Z,0.10
2019-01-23T17:46:22.670Z,0.30
2019-01-23T17:49:23.501Z,0.20
2019-01-23T17:52:24.445Z,0.40
2019-01-23T17:55:25.922Z,0.30
2019-01-23T17:58:26.624Z,0.30
2019-01-23T18:01:27.729Z,0.10
2019-01-23T18:04:28.149Z,0.30
2019-01-23T18:07:28.426Z,0.40
2019-01-23T18:10:29.060Z,-0.10
2019-01-23T18:13:29.804Z,0.00
2019-01-23T18:16:30.769Z,-0.20
2019-01-23T18:19:32.426Z,-0.20
2019-01-23T18:22:33.749Z,0.00
2019-01-23T18:25:34.630Z,0.00
2019-01-23T18:28:35.533Z,-0.10
2019-01-23T18:31:36.972Z,0.00
2019-01-23T18:34:37.475Z,-0.10
2019-01-23T18:37:38.246Z,-0.20
2019-01-23T18:40:39.718Z,-0.10
2019-01-23T18:43:40.505Z,0.00
2019-01-23T18:46:41.917Z,-0.20
2019-01-23T18:49:42.463Z,0.00
2019-01-23T18:52:43.541Z,0.10
2019-01-23T18:55:32.173Z,0.20
2019-01-23T19:01:53.923Z,0.20
2019-01-23T19:04:55.172Z,0.20
2019-01-23T19:07:56.261Z,0.10
2019-01-23T19:10:57.218Z,0.10
2019-01-23T19:13:57.750Z,0.20
2019-01-23T19:16:58.368Z,0.10
2019-01-23T19:19:59.018Z,0.10
2019-01-23T19:22:59.551Z,0.10
2019-01-23T19:26:00.581Z,0.00
2019-01-23T19:29:02.773Z,0.00
2019-01-23T19:32:03.669Z,0.00
2019-01-23T19:35:04.544Z,0.00
2019-01-23T19:38:05.597Z,0.00
2019-01-23T19:41:06.027Z,-0.10
2019-01-23T19:44:06.611Z,0.00
2019-01-23T19:47:07.081Z,0.00
2019-01-23T19:50:08.130Z,0.00
2019-01-23T19:53:08.357Z,0.10
2019-01-23T19:56:08.957Z,0.10
2019-01-23T19:59:09.557Z,0.00
2019-01-23T20:02:10.197Z,-0.10
2019-01-23T20:05:10.743Z,0.10
2019-01-23T20:08:11.302Z,0.10
2019-01-23T20:11:11.941Z,-0.10
2019-01-23T20:14:12.669Z,-0.20
2019-01-23T20:17:13.364Z,-0.10
2019-01-23T20:20:14.058Z,-0.20
2019-01-23T20:23:14.490Z,-0.10
2019-01-23T20:26:15.036Z,-0.10
2019-01-23T20:29:15.366Z,-0.10
2019-01-23T20:32:15.858Z,0.00
2019-01-23T20:35:16.383Z,0.00
2019-01-23T20:38:17.114Z,-0.20
2019-01-23T20:41:17.999Z,-0.20
2019-01-23T20:44:19.257Z,-0.10
2019-01-23T20:47:20.778Z,-0.10
2019-01-23T20:50:21.713Z,0.00
2019-01-23T20:53:22.397Z,-0.10
2019-01-23T20:56:23.551Z,-0.10
2019-01-23T20:59:24.916Z,-0.30
2019-01-23T21:02:25.415Z,-0.20
2019-01-23T21:05:28.804Z,-0.20
2019-01-23T21:08:30.305Z,-0.10
2019-01-23T21:11:33.093Z,-0.20
2019-01-23T21:14:33.410Z,-0.20
2019-01-23T21:17:52.006Z,-0.10
2019-01-23T21:21:05.459Z,0.00
2019-01-23T21:23:54.974Z,0.00
2019-01-23T21:27:44.256Z,-0.10
2019-01-23T21:30:41.807Z,-0.10
2019-01-23T21:33:42.782Z,-0.30
2019-01-23T21:36:45.940Z,-0.30
2019-01-23T21:39:46.493Z,-0.20
2019-01-23T21:42:47.874Z,-0.30
2019-01-23T21:45:48.297Z,-0.20
2019-01-23T21:48:48.771Z,-0.40
2019-01-23T21:51:52.456Z,-0.50
2019-01-23T21:54:53.664Z,-0.50
2019-01-23T21:57:54.669Z,-0.40
2019-01-23T22:00:55.186Z,-0.20
2019-01-23T22:03:55.974Z,-0.60
2019-01-23T22:06:57.122Z,-0.70
2019-01-23T22:09:57.903Z,-0.60
2019-01-23T22:12:58.455Z,-0.70
2019-01-23T22:15:59.156Z,-0.50
2019-01-23T22:18:59.892Z,-0.40
2019-01-23T22:22:00.240Z,-0.30
2019-01-23T22:24:49.006Z,-0.40
2019-01-23T22:27:56.900Z,-0.70
2019-01-23T22:30:57.337Z,-0.90
2019-01-23T22:33:57.676Z,-1.00
2019-01-23T22:36:58.010Z,-1.30
2019-01-23T22:39:58.503Z,-1.10
2019-01-23T22:42:58.965Z,-1.30
2019-01-23T22:45:59.682Z,-0.90
2019-01-23T22:49:00.063Z,-0.70
2019-01-23T22:52:00.801Z,-0.60
2019-01-23T22:55:01.157Z,-0.40
2019-01-23T22:58:01.461Z,-0.40
2019-01-23T23:01:03.165Z,-0.50
2019-01-23T23:04:03.812Z,-0.70
2019-01-23T23:07:04.294Z,-0.50
2019-01-23T23:10:04.729Z,-0.60
2019-01-23T23:12:53.348Z,-0.60
2019-01-23T23:16:01.217Z,-0.50
2019-01-23T23:19:01.561Z,-0.40
2019-01-23T23:22:02.716Z,-0.70
2019-01-23T23:25:03.912Z,-0.50
2019-01-23T23:28:05.172Z,-0.40
2019-01-23T23:31:06.460Z,-0.60
2019-01-23T23:33:55.366Z,-0.50
2019-01-23T23:37:03.252Z,-0.40
2019-01-23T23:40:03.850Z,-0.50
2019-01-23T23:43:04.248Z,-0.50
2019-01-23T23:46:04.782Z,-0.60
2019-01-23T23:49:05.721Z,-0.50
2019-01-23T23:52:06.194Z,-0.40
2019-01-23T23:55:06.699Z,-0.40
2019-01-23T23:58:07.163Z,-0.70
